Albany, NY (12205)

7:59 AM EDT on May 23, 2015 (GMT -0400)
Colonie | | Change Station
CLOSE
Current Station
Personal Weather Station
Location: Albany, NY
Elevation: 302 ft
Nearby Weather Stations
Active Advisory: Winter Weather Statement Active Notice: Public Information Statement

Elev 302 ft 42.73 °N, 73.82 °W | Updated 5 seconds ago

Clear
Clear
40.8 °F
Feels Like 41 °F
N
2.0
Wind Variable Wind from North
Gusts 4.0 mph

Today
High -- | Low -- °F
--% Chance of Precip.
Yesterday
High -- | Low -- °F
Precip. -- in
5:25 AM 8:18 PM
Waxing Crescent, 29% visible
Pressure 30.39 in
Visibility 10.0 miles
Clouds Clear
Windchill 41 °F
Dew Point 28 °F
Humidity 59%
Rainfall 0.00 in
Snow Depth Not available.
UV 2 out of 12
Pollen 9.10 out of 12
Air Quality Not available.
Flu Activity Widespread
METAR KALB 231151Z 31008KT 10SM CLR 07/M04 A3039 RMK AO2 SLP290 T00721039 10078 20033 51030

More Conditions Fewer Conditions

Pressure 30.39 in
Visibility 10.0 miles
Clouds Clear
Windchill 41 °F
Dew Point 28 °F
Humidity 59%
Rainfall 0.00 in
Snow Depth Not available.
UV 2 out of 12
Pollen 9.10 out of 12
Air Quality Not available.
Flu Activity Widespread
METAR KALB 231151Z 31008KT 10SM CLR 07/M04 A3039 RMK AO2 SLP290 T00721039 10078 20033 51030

More Conditions Fewer Conditions

10-Day Weather Forecast

Almanac

Astronomy

May. 23, 2015 Rise Set
Actual Time
Civil Twilight
Nautical Twilight
Astronomical Twilight
Moon
Length of Visible Light
Length of Day
Tomorrow will be .
, % of the Moon is Illuminated

Today's Extremes

State Highs State Lows

Community

WunderPhotos

Upload Photos

1,823,435 photos uploaded!

WunderBlogs® & News

Nearby

Air Quality

  Air Quality AQ Index Pollutant
Not available.

Snow Depth

Station Depth Elevation

Earthquake Activity

City Distance Mag. Time & Date
Minimum magnitude displayed is 2.5.

Coastal Water Temperatures

Place Temperature

Stations

Nearby Weather Stations

Station Location Temp. Windchill Dew Point Humidity Wind Precip. Elev Updated Type
                   
Winter Weather Statement
Statement as of 6:27 AM EDT on May 23, 2015

... Frost advisory is cancelled...

The National Weather Service in Albany has cancelled the frost
advisory for the capital district... Mid Hudson valley... southern
Taconics... and Litchfield Hills...

Temperatures have only fallen into the upper 30s to lower
40s... and will rise from there. The frost advisory is cancelled.